Time;durP1;ratioP1;P1;durP2;ratioP2;P2;SDS_P1;SDS_P2;PMS_P1;PMS_P2;Temp;Humidity;BMP_temperature;BMP_pressure;BME280_temperature;BME280_humidity;BME280_pressure;Samples;Min_cycle;Max_cycle;Signal;HPM_P1;HPM_P2
2023/03/17 00:00:29;;;;;;;14.30;5.50;;;10.50;99.90;;;9.71;100.00;100167.13;4152569;28;20397;-73
2023/03/17 00:02:30;;;;;;;11.82;5.65;;;10.50;99.90;;;9.71;100.00;100181.13;4135050;28;20471;-73
2023/03/17 00:04:31;;;;;;;15.93;5.38;;;10.50;99.90;;;9.71;100.00;100189.03;4152544;28;20096;-73
2023/03/17 00:06:32;;;;;;;11.27;5.32;;;10.50;99.90;;;9.70;100.00;100192.66;4152047;28;20022;-73
2023/03/17 00:08:34;;;;;;;13.48;4.80;;;10.50;99.90;;;9.73;100.00;100186.25;4151181;28;20030;-73
2023/03/17 00:10:36;;;;;;;18.80;7.40;;;10.50;99.90;;;9.69;100.00;100167.31;4152580;28;20029;-73
2023/03/17 00:12:37;;;;;;;16.27;5.95;;;10.50;99.90;;;9.74;100.00;100154.44;4151624;28;20096;-73
2023/03/17 00:14:38;;;;;;;12.77;4.97;;;10.50;99.90;;;9.73;100.00;100139.66;4151035;28;20042;-73
2023/03/17 00:16:42;;;;;;;11.50;5.13;;;10.50;99.90;;;9.71;100.00;100144.25;4135171;28;20042;-74
2023/03/17 00:18:43;;;;;;;;;;;10.50;99.90;;;9.64;100.00;100140.66;4145388;28;20048;-73
2023/03/17 00:20:46;;;;;;;12.57;4.70;;;10.50;99.90;;;9.72;100.00;100145.06;4134575;28;19910;-73
2023/03/17 00:22:47;;;;;;;12.90;5.03;;;10.50;99.90;;;9.71;100.00;100135.53;4151052;28;20064;-73
2023/03/17 00:24:48;;;;;;;15.48;4.85;;;10.50;99.90;;;9.71;100.00;100135.53;4152417;28;20040;-73
2023/03/17 00:26:49;;;;;;;16.13;5.47;;;10.50;99.90;;;9.76;100.00;100134.06;4152341;28;20030;-73
2023/03/17 00:28:51;;;;;;;11.90;4.80;;;10.50;99.90;;;9.78;100.00;100144.41;4150074;28;20037;-73
2023/03/17 00:30:57;;;;;;;12.05;4.20;;;10.60;99.90;;;9.78;100.00;100145.25;4172688;28;20017;-73
2023/03/17 00:32:58;;;;;;;14.85;4.97;;;10.50;99.90;;;9.81;100.00;100146.72;4146371;28;20117;-73
2023/03/17 00:34:59;;;;;;;13.30;4.50;;;10.60;99.90;;;9.79;100.00;100132.91;4157465;28;20040;-73
2023/03/17 00:37:00;;;;;;;11.25;4.97;;;10.60;99.90;;;9.78;100.00;100132.06;4155676;28;20119;-73
2023/03/17 00:39:02;;;;;;;14.25;5.25;;;10.60;99.90;;;9.77;100.00;100126.97;4172073;28;20416;-73
2023/03/17 00:41:03;;;;;;;10.70;4.88;;;10.60;99.90;;;9.76;100.00;100128.78;4156519;28;20108;-73
2023/03/17 00:43:04;;;;;;;9.18;3.88;;;10.50;99.90;;;9.76;100.00;100123.53;4156504;28;20030;-73
2023/03/17 00:45:05;;;;;;;15.65;4.78;;;10.60;99.90;;;9.73;100.00;100126.50;4156312;28;20413;-73
2023/03/17 00:47:10;;;;;;;14.32;4.70;;;10.50;99.90;;;9.72;100.00;100140.63;4155877;28;20033;-73
2023/03/17 00:49:21;;;;;;;14.35;5.25;;;10.50;99.90;;;9.70;100.00;100165.50;4147449;28;20516;-73
2023/03/17 00:51:22;;;;;;;14.50;5.07;;;10.50;99.90;;;9.68;100.00;100167.44;4157430;28;20564;-73
2023/03/17 00:53:23;;;;;;;12.05;5.50;;;10.50;99.90;;;9.62;100.00;100153.13;4156194;28;20057;-73
2023/03/17 00:55:25;;;;;;;12.93;5.78;;;10.50;99.90;;;9.61;100.00;100156.78;4172850;28;20484;-73
2023/03/17 00:57:26;;;;;;;15.10;4.90;;;10.40;99.90;;;9.59;100.00;100148.19;4156300;28;20108;-73
2023/03/17 00:59:36;;;;;;;12.23;5.90;;;10.40;99.90;;;9.58;100.00;100140.47;4156389;28;20025;-73
2023/03/17 01:01:36;;;;;;;12.60;4.97;;;10.40;99.90;;;9.56;100.00;100131.94;4156260;28;20100;-73
2023/03/17 01:03:38;;;;;;;13.48;4.68;;;10.40;99.90;;;9.55;100.00;100122.38;4157594;28;20030;-73
2023/03/17 01:05:41;;;;;;;12.07;4.32;;;10.30;99.90;;;9.52;100.00;100126.16;4156051;28;20088;-73
2023/03/17 01:07:47;;;;;;;12.88;4.93;;;10.30;99.90;;;9.47;100.00;100120.53;4156179;28;20091;-73
2023/03/17 01:09:49;;;;;;;13.98;5.03;;;10.30;99.90;;;9.50;100.00;100132.59;4140252;28;20453;-73
2023/03/17 01:11:49;;;;;;;19.65;5.32;;;10.30;99.90;;;9.49;100.00;100117.75;4157468;28;20021;-73
2023/03/17 01:13:51;;;;;;;10.65;4.38;;;10.30;99.90;;;9.52;100.00;100115.63;4156130;28;20046;-73
2023/03/17 01:15:54;;;;;;;13.60;5.55;;;10.30;99.90;;;9.51;100.00;100100.81;4156998;28;20014;-73
2023/03/17 01:17:56;;;;;;;18.00;5.57;;;10.30;99.90;;;9.53;100.00;100114.63;4150803;28;20072;-73
2023/03/17 01:19:57;;;;;;;18.23;6.30;;;10.30;99.90;;;9.52;100.00;100149.84;4157278;28;20029;-73
2023/03/17 01:21:58;;;;;;;12.88;5.45;;;10.30;99.90;;;9.47;100.00;100133.72;4157552;28;20021;-73
2023/03/17 01:24:00;;;;;;;14.70;4.50;;;10.30;99.90;;;9.43;100.00;100129.78;4156048;28;20033;-73
2023/03/17 01:26:01;;;;;;;11.23;5.13;;;10.30;99.90;;;9.44;100.00;100137.50;4155947;28;20513;-73
2023/03/17 01:28:02;;;;;;;11.07;5.55;;;10.30;99.90;;;9.44;100.00;100134.84;4156072;28;20032;-73
2023/03/17 01:30:06;;;;;;;17.95;6.03;;;10.30;99.90;;;9.43;100.00;100116.63;4156139;28;20145;-73
2023/03/17 01:32:07;;;;;;;9.55;4.70;;;10.20;99.90;;;9.46;100.00;100111.03;4140173;28;20023;-73
2023/03/17 01:34:08;;;;;;;9.05;4.93;;;10.20;99.90;;;9.36;100.00;100087.47;4155943;28;20507;-73
2023/03/17 01:36:10;;;;;;;14.00;5.50;;;10.20;99.90;;;9.29;100.00;100090.91;4157073;28;20033;-73
2023/03/17 01:38:12;;;;;;;16.02;5.28;;;10.20;99.90;;;9.30;100.00;100089.94;4149184;28;20120;-73
2023/03/17 01:40:17;;;;;;;12.93;5.25;;;10.10;99.90;;;9.33;100.00;100094.88;4153744;28;20037;-73
2023/03/17 01:42:19;;;;;;;14.77;4.85;;;10.10;99.90;;;9.33;100.00;100082.53;4152688;28;20418;-73
2023/03/17 01:44:21;;;;;;;15.13;4.75;;;10.10;99.90;;;9.31;100.00;100083.69;4144275;28;20136;-73
2023/03/17 01:46:43;;;;;;;11.80;6.07;;;10.10;99.90;;;9.29;100.00;100072.50;4154527;28;20037;-73
2023/03/17 01:49:13;;;;;;;11.68;4.93;;;10.10;99.90;;;9.29;100.00;100075.94;4154588;28;20029;-73
2023/03/17 01:51:54;;;;;;;12.55;4.95;;;10.10;99.90;;;9.32;100.00;100080.06;4154307;28;20420;-73
2023/03/17 01:53:56;;;;;;;11.65;5.38;;;10.10;99.90;;;9.33;100.00;100074.66;4153149;28;20037;-72
2023/03/17 01:55:57;;;;;;;9.93;5.45;;;10.20;99.90;;;9.39;100.00;100095.06;4169719;28;20056;-73
2023/03/17 01:57:58;;;;;;;13.90;5.07;;;10.20;99.90;;;9.43;100.00;100088.47;4154620;28;20102;-73
2023/03/17 02:00:08;;;;;;;12.30;5.30;;;10.20;99.90;;;9.48;100.00;100100.31;4153153;28;20030;-73
2023/03/17 02:02:15;;;;;;;14.40;4.97;;;10.30;99.90;;;9.51;100.00;100092.91;4153152;28;20018;-73
2023/03/17 02:04:18;;;;;;;9.57;4.45;;;10.30;99.90;;;9.54;100.00;100095.22;4169362;28;20026;-73
2023/03/17 02:06:19;;;;;;;16.02;5.13;;;10.30;99.90;;;9.57;100.00;100110.69;4152830;28;20104;-73
2023/03/17 02:08:21;;;;;;;13.90;5.35;;;10.40;99.90;;;9.57;100.00;100112.50;4154160;28;20026;-73
2023/03/17 02:10:27;;;;;;;18.88;5.75;;;10.40;99.90;;;9.58;100.00;100104.44;4154315;28;20033;-73
2023/03/17 02:12:29;;;;;;;8.07;4.45;;;10.40;99.90;;;9.59;100.00;100105.28;4154352;28;20092;-73
2023/03/17 02:14:30;;;;;;;9.82;4.85;;;10.40;99.90;;;9.55;100.00;100096.88;4153968;28;20100;-73
2023/03/17 02:16:31;;;;;;;12.90;5.65;;;10.30;99.90;;;9.52;100.00;100084.03;4154157;28;20121;-73
2023/03/17 02:18:32;;;;;;;10.05;4.97;;;10.40;99.90;;;9.51;100.00;100095.53;4152982;28;20538;-73
2023/03/17 02:20:57;;;;;;;14.93;6.30;;;10.30;99.90;;;9.49;100.00;100091.44;4152594;28;20031;-73
2023/03/17 02:22:59;;;;;;;10.15;5.57;;;10.30;99.90;;;9.42;100.00;100089.47;4143650;28;20066;-72
2023/03/17 02:25:00;;;;;;;14.23;5.75;;;10.30;99.90;;;9.42;100.00;100088.63;4153308;28;20412;-73
2023/03/17 02:27:17;;;;;;;13.68;5.30;;;10.30;99.90;;;9.45;100.00;100088.31;4148113;28;20030;-73
2023/03/17 02:29:21;;;;;;;11.68;5.55;;;10.30;99.90;;;9.43;100.00;100087.66;4151642;28;20130;-73
2023/03/17 02:31:25;;;;;;;15.10;6.20;;;10.20;99.90;;;9.47;100.00;100101.31;4143006;28;20410;-73
2023/03/17 02:33:26;;;;;;;13.77;5.50;;;10.30;99.90;;;9.49;100.00;100100.16;4153913;28;20379;-73
2023/03/17 02:35:27;;;;;;;16.90;6.20;;;10.30;99.90;;;9.53;100.00;100098.81;4153514;28;20041;-73
2023/03/17 02:37:28;;;;;;;11.68;5.25;;;10.30;99.90;;;9.55;100.00;100086.34;4153783;28;20033;-73
2023/03/17 02:39:30;;;;;;;15.18;5.30;;;10.40;99.90;;;9.57;100.00;100071.19;4153949;28;20120;-73
2023/03/17 02:41:31;;;;;;;14.63;6.43;;;10.40;99.90;;;9.57;100.00;100060.66;4152496;28;20057;-73
2023/03/17 02:43:32;;;;;;;13.90;5.40;;;10.40;99.90;;;9.57;100.00;100044.84;4153579;28;20040;-73
2023/03/17 02:45:33;;;;;;;13.77;5.68;;;10.40;99.90;;;9.55;100.00;100046.03;4152770;28;20030;-73
2023/03/17 02:47:35;;;;;;;12.50;5.05;;;10.40;99.90;;;9.51;100.00;100044.69;4153607;28;20034;-73
2023/03/17 02:49:37;;;;;;;12.70;5.75;;;10.30;99.90;;;9.50;100.00;100048.34;4152469;28;20018;-73
2023/03/17 02:51:38;;;;;;;14.80;4.90;;;10.30;99.90;;;9.46;100.00;100037.31;4152206;28;20576;-73
2023/03/17 02:53:39;;;;;;;11.93;4.88;;;10.30;99.90;;;9.46;100.00;100018.88;4152445;28;20022;-73
2023/03/17 02:55:40;;;;;;;13.20;4.25;;;10.20;99.90;;;9.43;100.00;100027.94;4152754;28;20030;-73
2023/03/17 02:57:41;;;;;;;6.25;3.47;;;10.20;99.90;;;9.38;100.00;100029.41;4143811;28;20033;-73
2023/03/17 02:59:43;;;;;;;7.40;4.25;;;10.20;99.90;;;9.35;100.00;100033.19;4150459;28;20026;-73
2023/03/17 03:01:47;;;;;;;12.30;4.70;;;10.10;99.90;;;9.31;100.00;100041.59;4152206;28;20099;-73
2023/03/17 03:03:48;;;;;;;10.02;4.05;;;10.10;99.90;;;9.27;100.00;100048.16;4168549;28;20099;-73
2023/03/17 03:05:49;;;;;;;12.75;4.93;;;10.10;99.90;;;9.29;100.00;100051.44;4151872;28;20092;-73
2023/03/17 03:07:51;;;;;;;8.80;4.45;;;10.10;99.90;;;9.30;100.00;100068.88;4168568;28;20246;-73
2023/03/17 03:09:51;;;;;;;13.30;4.85;;;10.10;99.90;;;9.31;100.00;100057.38;4152002;28;20117;-73
2023/03/17 03:11:52;;;;;;;12.38;5.10;;;10.10;99.90;;;9.35;100.00;100062.13;4153274;28;20018;-73
2023/03/17 03:13:53;;;;;;;13.45;4.47;;;10.10;99.90;;;9.33;100.00;100047.50;4152514;28;20494;-73
2023/03/17 03:15:55;;;;;;;11.00;5.82;;;10.10;99.90;;;9.36;100.00;100057.69;4152102;28;20026;-73
2023/03/17 03:17:55;;;;;;;10.32;5.00;;;10.20;99.90;;;9.39;100.00;100054.75;4143437;28;20030;-73
2023/03/17 03:19:56;;;;;;;14.05;5.30;;;10.20;99.90;;;9.44;100.00;100065.59;4151878;28;20077;-73
2023/03/17 03:21:57;;;;;;;13.10;5.78;;;10.20;99.90;;;9.46;100.00;100074.16;4168692;28;20049;-73
2023/03/17 03:23:58;;;;;;;18.52;6.25;;;10.30;99.90;;;9.47;100.00;100077.63;4151959;28;20030;-73
2023/03/17 03:25:59;;;;;;;15.82;6.10;;;10.30;99.90;;;9.49;100.00;100073.84;4168031;28;20481;-73
2023/03/17 03:28:00;;;;;;;12.68;5.55;;;10.30;99.90;;;9.52;100.00;100073.50;4151793;28;20464;-73
2023/03/17 03:30:01;;;;;;;15.57;6.40;;;10.30;99.90;;;9.51;100.00;100071.03;4151793;28;20030;-73
2023/03/17 03:32:03;;;;;;;14.20;5.65;;;10.30;99.90;;;9.53;100.00;100075.13;4162673;28;20524;-73
2023/03/17 03:34:03;;;;;;;11.13;5.45;;;10.30;99.90;;;9.55;100.00;100075.81;4151683;28;20057;-73
2023/03/17 03:36:05;;;;;;;16.73;6.35;;;10.30;99.90;;;9.55;100.00;100062.66;4140267;28;20032;-73
2023/03/17 03:38:07;;;;;;;17.75;7.00;;;10.30;99.90;;;9.56;100.00;100043.22;4152731;28;20026;-73
2023/03/17 03:40:09;;;;;;;10.48;5.15;;;10.30;99.90;;;9.50;100.00;100049.13;4151775;28;20022;-73
2023/03/17 03:42:10;;;;;;;10.70;4.80;;;10.30;99.90;;;9.43;100.00;100049.00;4153129;28;20033;-73
2023/03/17 03:44:11;;;;;;;11.02;5.70;;;10.30;99.90;;;9.39;100.00;100058.19;4152914;28;20033;-73
2023/03/17 03:46:12;;;;;;;14.55;5.82;;;10.20;99.90;;;9.33;100.00;100053.59;4152833;28;20041;-73
2023/03/17 03:48:13;;;;;;;11.32;5.90;;;10.20;99.90;;;9.29;100.00;100062.78;4152683;28;20029;-73
2023/03/17 03:50:14;;;;;;;11.35;5.20;;;10.10;99.90;;;9.25;100.00;100053.59;4151108;28;20445;-73
2023/03/17 03:52:15;;;;;;;8.65;5.03;;;10.10;99.90;;;9.23;100.00;100052.09;4152800;28;20080;-73
2023/03/17 03:54:15;;;;;;;13.55;5.80;;;10.10;99.90;;;9.17;100.00;100042.25;4152819;28;20022;-73
2023/03/17 03:56:16;;;;;;;8.52;3.92;;;10.00;99.90;;;9.15;100.00;100045.03;4151502;28;20029;-73
2023/03/17 03:58:17;;;;;;;10.45;5.03;;;10.00;99.90;;;9.06;100.00;100051.28;4167782;28;20033;-73
2023/03/17 04:00:19;;;;;;;10.00;4.60;;;9.90;99.90;;;9.03;100.00;100066.56;4151280;28;20076;-73
2023/03/17 04:02:20;;;;;;;10.85;5.03;;;9.90;99.90;;;8.98;100.00;100068.88;4167770;28;20112;-73
2023/03/17 04:04:21;;;;;;;16.20;5.25;;;9.80;99.90;;;8.92;100.00;100069.50;4152015;28;20030;-73
2023/03/17 04:06:22;;;;;;;10.55;4.88;;;9.80;99.90;;;8.88;100.00;100064.56;4152155;28;20076;-73
2023/03/17 04:08:23;;;;;;;11.20;5.10;;;9.70;99.90;;;8.86;100.00;100057.84;4152468;28;20030;-73
2023/03/17 04:10:24;;;;;;;13.60;5.05;;;9.70;99.90;;;8.86;100.00;100057.84;4151494;28;20036;-73
2023/03/17 04:12:25;;;;;;;14.10;5.20;;;9.70;99.90;;;8.85;100.00;100059.63;4152510;28;20026;-73
2023/03/17 04:14:27;;;;;;;11.32;4.60;;;9.70;99.90;;;8.83;100.00;100058.97;4150791;28;20077;-73
2023/03/17 04:16:28;;;;;;;10.32;5.10;;;9.70;99.90;;;8.82;100.00;100057.31;4152584;28;20440;-73
2023/03/17 04:18:30;;;;;;;7.47;4.68;;;9.70;99.90;;;8.78;100.00;100058.63;4151150;28;20030;-73
2023/03/17 04:20:31;;;;;;;11.40;5.47;;;9.60;99.90;;;8.74;100.00;100057.31;4152153;28;20033;-73
2023/03/17 04:22:32;;;;;;;16.60;5.13;;;9.60;99.90;;;8.72;100.00;100067.16;4152300;28;20559;-73
2023/03/17 04:24:33;;;;;;;14.50;5.50;;;9.50;99.90;;;8.65;100.00;100066.16;4151209;28;20022;-73
2023/03/17 04:26:35;;;;;;;12.00;4.95;;;9.50;99.90;;;8.66;100.00;100075.69;4167468;28;20060;-73
2023/03/17 04:28:35;;;;;;;10.05;4.90;;;9.50;99.90;;;8.63;100.00;100081.25;4151062;28;20021;-73
2023/03/17 04:30:36;;;;;;;12.93;4.45;;;9.40;99.90;;;8.61;100.00;100085.03;4152237;28;20053;-73
2023/03/17 04:32:37;;;;;;;10.00;4.80;;;9.40;99.90;;;8.62;100.00;100095.41;4152191;28;20023;-73
2023/03/17 04:34:40;;;;;;;15.57;4.95;;;9.40;99.90;;;8.58;100.00;100087.97;4150808;28;20022;-73
2023/03/17 04:36:42;;;;;;;9.63;4.50;;;9.40;99.90;;;8.58;100.00;100098.50;4151386;28;20080;-73
2023/03/17 04:38:43;;;;;;;10.38;4.82;;;9.40;99.90;;;8.60;100.00;100101.81;4167565;28;20029;-73
2023/03/17 04:40:44;;;;;;;9.27;4.60;;;9.40;99.90;;;8.64;100.00;100117.09;4138077;28;20048;-73
2023/03/17 04:42:45;;;;;;;11.30;4.72;;;9.50;99.90;;;8.67;100.00;100113.31;4167409;28;20021;-73
2023/03/17 04:44:46;;;;;;;14.52;5.85;;;9.50;99.90;;;8.75;100.00;100123.88;4150955;28;20025;-73
2023/03/17 04:46:47;;;;;;;16.33;5.45;;;9.50;99.90;;;8.80;100.00;100127.69;4150194;28;20037;-73
2023/03/17 04:48:47;;;;;;;13.40;5.45;;;9.60;99.90;;;8.87;100.00;100125.22;4138181;28;20026;-73
2023/03/17 04:50:48;;;;;;;10.45;5.18;;;9.70;99.90;;;8.92;100.00;100119.47;4140893;28;20025;-73
2023/03/17 04:52:49;;;;;;;11.82;5.50;;;9.70;99.90;;;8.92;100.00;100112.41;4150972;28;20033;-73
2023/03/17 04:54:50;;;;;;;11.27;4.82;;;9.70;99.90;;;8.92;100.00;100106.34;4148879;28;20030;-73
2023/03/17 04:56:51;;;;;;;8.20;4.72;;;9.80;99.90;;;8.93;100.00;100108.00;4150904;28;20038;-73
2023/03/17 04:58:52;;;;;;;9.73;4.18;;;9.80;99.90;;;8.93;100.00;100106.16;4144802;28;20106;-73
2023/03/17 05:00:53;;;;;;;10.43;4.95;;;9.80;99.90;;;8.98;100.00;100105.69;4144280;28;20114;-73
2023/03/17 05:02:54;;;;;;;14.98;6.03;;;9.80;99.90;;;9.01;100.00;100105.38;4150838;28;20591;-73
2023/03/17 05:04:56;;;;;;;14.80;5.30;;;9.90;99.90;;;9.08;100.00;100101.13;4150549;28;20026;-73
2023/03/17 05:06:57;;;;;;;12.48;5.35;;;9.90;99.90;;;9.12;100.00;100102.41;4150791;28;20117;-73
2023/03/17 05:08:57;;;;;;;9.25;5.05;;;9.90;99.90;;;9.15;100.00;100108.19;4152055;28;20050;-73
2023/03/17 05:10:58;;;;;;;11.23;5.07;;;10.00;99.90;;;9.19;100.00;100121.84;4151515;28;20033;-73
2023/03/17 05:12:59;;;;;;;12.18;5.00;;;10.00;99.90;;;9.23;100.00;100117.88;4151912;28;20512;-73
2023/03/17 05:15:00;;;;;;;16.88;6.43;;;10.00;99.90;;;9.27;100.00;100121.84;4151769;28;20417;-73
2023/03/17 05:17:01;;;;;;;15.38;6.13;;;10.10;99.90;;;9.30;100.00;100113.63;4155052;28;20037;-73
2023/03/17 05:19:02;;;;;;;15.68;6.00;;;10.10;99.90;;;9.38;100.00;100124.97;4153877;28;20041;-73
2023/03/17 05:21:05;;;;;;;14.80;5.45;;;10.20;99.90;;;9.43;100.00;100117.44;4154657;28;20084;-73
2023/03/17 05:23:06;;;;;;;13.43;4.68;;;10.20;99.90;;;9.47;100.00;100117.91;4153847;28;20022;-73
2023/03/17 05:25:08;;;;;;;11.10;6.30;;;10.30;99.90;;;9.51;100.00;100105.25;4153801;28;20141;-73
2023/03/17 05:27:09;;;;;;;22.60;6.07;;;10.30;99.90;;;9.56;100.00;100090.59;4150607;28;20022;-73
2023/03/17 05:29:10;;;;;;;19.52;5.50;;;10.30;99.90;;;9.61;100.00;100082.22;4152664;28;20393;-73
2023/03/17 05:31:11;;;;;;;10.43;4.78;;;10.40;99.90;;;9.59;100.00;100087.63;4154793;28;20042;-73
2023/03/17 05:33:13;;;;;;;8.07;4.13;;;10.40;99.90;;;9.58;100.00;100083.38;4155025;28;20026;-73
2023/03/17 05:35:14;;;;;;;11.88;5.03;;;10.40;99.90;;;9.59;100.00;100092.91;4153350;28;20390;-73
2023/03/17 05:37:16;;;;;;;16.67;5.53;;;10.40;99.90;;;9.49;100.00;100094.91;4154580;28;20516;-73
2023/03/17 05:39:17;;;;;;;12.32;5.03;;;10.30;99.90;;;9.43;100.00;100091.13;4154686;28;20036;-73
2023/03/17 05:41:18;;;;;;;11.57;5.30;;;10.30;99.90;;;9.37;100.00;100081.25;4154455;28;20018;-73
2023/03/17 05:43:19;;;;;;;11.95;4.80;;;10.20;99.90;;;9.32;100.00;100088.78;4153520;28;20057;-73
2023/03/17 05:45:20;;;;;;;10.88;4.32;;;10.20;99.90;;;9.24;100.00;100082.69;4153504;28;20022;-73
2023/03/17 05:47:22;;;;;;;11.85;4.43;;;10.10;99.90;;;9.23;100.00;100086.31;4169502;28;20033;-73
2023/03/17 05:49:23;;;;;;;8.57;4.38;;;10.10;99.90;;;9.19;100.00;100082.38;4153307;28;20025;-73
2023/03/17 05:51:24;;;;;;;7.75;4.40;;;10.00;99.90;;;9.17;100.00;100079.09;4153116;28;20032;-73
2023/03/17 05:53:25;;;;;;;8.63;3.83;;;10.00;99.90;;;9.16;100.00;100082.69;4154413;28;20018;-73
2023/03/17 05:55:26;;;;;;;9.25;4.75;;;10.00;99.90;;;9.10;100.00;100081.56;4153578;28;20032;-73
2023/03/17 05:57:27;;;;;;;10.43;4.65;;;10.00;99.90;;;9.11;100.00;100085.00;4148351;28;20117;-73
2023/03/17 05:59:28;;;;;;;9.52;4.25;;;10.00;99.90;;;9.09;100.00;100089.59;4148251;28;20048;-73
2023/03/17 06:01:30;;;;;;;8.38;4.60;;;9.90;99.90;;;9.10;100.00;100101.78;4153114;28;20029;-73
2023/03/17 06:03:31;;;;;;;13.40;5.28;;;9.90;99.90;;;9.07;100.00;100086.31;4154428;28;20033;-73
2023/03/17 06:05:32;;;;;;;6.03;3.50;;;9.90;99.90;;;9.09;100.00;100081.69;4154169;28;20028;-73
2023/03/17 06:07:35;;;;;;;9.05;4.35;;;9.90;99.90;;;9.07;100.00;100079.25;4154173;28;20026;-73
2023/03/17 06:09:35;;;;;;;9.48;4.07;;;9.90;99.90;;;9.07;100.00;100078.41;4153017;28;20018;-73
2023/03/17 06:11:37;;;;;;;7.18;4.20;;;9.90;99.90;;;9.07;100.00;100081.03;4153217;28;20080;-73
2023/03/17 06:13:37;;;;;;;8.98;4.53;;;9.90;99.90;;;9.07;100.00;100086.31;4154091;28;20022;-73
2023/03/17 06:15:38;;;;;;;12.00;4.57;;;9.90;99.90;;;9.04;100.00;100089.25;4154079;28;20036;-73
2023/03/17 06:17:41;;;;;;;13.80;5.38;;;9.90;99.90;;;9.05;100.00;100096.97;4147393;28;20077;-73
2023/03/17 06:19:42;;;;;;;10.15;5.15;;;9.90;99.90;;;9.07;100.00;100094.19;4153998;28;20037;-73
2023/03/17 06:21:42;;;;;;;11.02;5.43;;;9.90;99.90;;;9.10;100.00;100093.88;4152956;28;20037;-73
2023/03/17 06:23:43;;;;;;;10.50;4.97;;;9.90;99.90;;;9.12;100.00;100092.72;4154091;28;20144;-73
2023/03/17 06:25:44;;;;;;;9.02;5.20;;;9.90;99.90;;;9.13;100.00;100088.28;4153913;28;20030;-73
2023/03/17 06:27:45;;;;;;;14.60;5.28;;;9.90;99.90;;;9.17;100.00;100084.34;4152398;28;20073;-73
2023/03/17 06:29:46;;;;;;;14.40;6.32;;;10.00;99.90;;;9.20;100.00;100078.78;4154144;28;20682;-73
2023/03/17 06:31:49;;;;;;;10.82;5.53;;;10.00;99.90;;;9.25;100.00;100087.00;4152510;28;20021;-73
2023/03/17 06:33:50;;;;;;;9.45;5.22;;;10.00;99.90;;;9.24;100.00;100086.16;4149203;28;20018;-73
2023/03/17 06:35:52;;;;;;;12.43;5.47;;;10.00;99.90;;;9.28;100.00;100094.56;4153496;28;20030;-73
2023/03/17 06:37:53;;;;;;;15.43;5.70;;;10.10;99.90;;;9.29;100.00;100098.81;4152146;28;20048;-73
2023/03/17 06:39:56;;;;;;;11.35;5.40;;;10.10;99.90;;;9.31;100.00;100096.88;4136352;28;20044;-73
2023/03/17 06:41:57;;;;;;;7.70;4.60;;;10.10;99.90;;;9.31;100.00;100081.91;4152620;28;20018;-73
2023/03/17 06:43:58;;;;;;;9.88;4.32;;;10.10;99.90;;;9.34;100.00;100083.38;4152493;28;20128;-73
2023/03/17 06:46:00;;;;;;;7.43;4.23;;;10.10;99.90;;;9.34;100.00;100081.56;4153964;28;20048;-73
2023/03/17 06:48:01;;;;;;;11.63;4.10;;;10.20;99.90;;;9.34;100.00;100086.00;4143754;28;20061;-73
2023/03/17 06:50:03;;;;;;;9.32;4.53;;;10.20;99.90;;;9.33;100.00;100095.72;4131689;28;20049;-73
2023/03/17 06:52:05;;;;;;;12.00;4.75;;;10.20;99.90;;;9.33;100.00;100092.25;4147817;28;20025;-73
2023/03/17 06:54:07;;;;;;;9.18;4.05;;;10.20;99.90;;;9.32;100.00;100093.22;4153507;28;20037;-73
2023/03/17 06:56:08;;;;;;;12.00;5.15;;;10.20;99.90;;;9.37;100.00;100097.03;4152356;28;20591;-73
2023/03/17 06:58:09;;;;;;;13.27;5.90;;;10.20;99.90;;;9.37;100.00;100104.09;4152245;28;20430;-73
2023/03/17 07:00:12;;;;;;;10.32;5.28;;;10.20;99.90;;;9.43;100.00;100111.34;4153356;28;20051;-73
2023/03/17 07:02:14;;;;;;;12.73;5.83;;;10.20;99.90;;;9.44;100.00;100115.59;4152160;28;20052;-73
2023/03/17 07:04:15;;;;;;;13.70;5.75;;;10.30;99.90;;;9.41;100.00;100119.41;4152042;28;20271;-73
2023/03/17 07:06:16;;;;;;;13.30;5.97;;;10.30;99.90;;;9.46;100.00;100129.44;4168175;28;20090;-73
2023/03/17 07:08:17;;;;;;;15.07;5.85;;;10.30;99.90;;;9.50;100.00;100130.75;4153156;28;20478;-73
2023/03/17 07:10:18;;;;;;;17.88;5.82;;;10.30;99.90;;;9.47;100.00;100136.34;4149730;28;20065;-74
2023/03/17 07:12:20;;;;;;;13.88;6.68;;;10.30;99.90;;;9.47;100.00;100144.22;4152094;28;20026;-74
2023/03/17 07:14:21;;;;;;;18.20;6.05;;;10.30;99.90;;;9.53;100.00;100151.47;4147165;28;20072;-73
2023/03/17 07:16:22;;;;;;;14.63;6.28;;;10.30;99.90;;;9.50;100.00;100153.66;4152119;28;20066;-74
2023/03/17 07:18:23;;;;;;;13.00;6.10;;;10.30;99.90;;;9.47;100.00;100144.22;4151719;28;20029;-73
2023/03/17 07:20:24;;;;;;;12.82;6.55;;;10.30;99.90;;;9.47;100.00;100151.34;4152926;28;20037;-73
2023/03/17 07:22:25;;;;;;;12.48;6.93;;;10.30;99.90;;;9.45;100.00;100154.94;4153141;28;20485;-73
2023/03/17 07:24:26;;;;;;;18.00;7.50;;;10.30;99.90;;;9.45;100.00;100157.56;4152913;28;20038;-74
2023/03/17 07:26:26;;;;;;;11.52;6.57;;;10.30;99.90;;;9.48;100.00;100156.41;4152156;28;20026;-74
2023/03/17 07:28:27;;;;;;;12.38;6.03;;;10.30;99.90;;;9.49;100.00;100171.25;4145167;28;20026;-74
2023/03/17 07:30:28;;;;;;;13.80;6.47;;;10.30;99.90;;;9.52;100.00;100178.81;4152991;28;20393;-74
2023/03/17 07:32:30;;;;;;;16.77;8.00;;;10.40;99.90;;;9.57;100.00;100175.69;4152512;28;20033;-73
2023/03/17 07:34:31;;;;;;;15.60;6.90;;;10.30;99.90;;;9.58;100.00;100182.59;4151637;28;20084;-74
2023/03/17 07:36:33;;;;;;;21.48;6.47;;;10.40;99.90;;;9.60;100.00;100189.34;4152901;28;20428;-73
2023/03/17 07:38:35;;;;;;;13.80;6.20;;;10.40;99.90;;;9.61;100.00;100187.53;4150890;28;20023;-74
2023/03/17 07:40:35;;;;;;;17.02;6.38;;;10.40;99.90;;;9.64;100.00;100190.69;4151557;28;20041;-73
2023/03/17 07:42:37;;;;;;;18.05;7.00;;;10.40;99.90;;;9.65;100.00;100194.94;4153059;28;20025;-73
2023/03/17 07:44:40;;;;;;;16.50;6.45;;;10.50;99.90;;;9.68;100.00;100197.25;4152385;28;20033;-73
2023/03/17 07:46:41;;;;;;;17.98;6.82;;;10.50;99.90;;;9.69;100.00;100205.97;4148901;28;20030;-73
2023/03/17 07:48:42;;;;;;;16.75;6.95;;;10.50;99.90;;;9.73;100.00;100208.13;4151002;28;20049;-74
2023/03/17 07:50:44;;;;;;;15.57;6.68;;;10.50;99.90;;;9.72;100.00;100189.84;4151305;28;20104;-74
2023/03/17 07:52:45;;;;;;;18.30;6.65;;;10.50;99.90;;;9.76;100.00;100199.09;4167788;28;20032;-75
2023/03/17 07:54:46;;;;;;;16.50;7.03;;;10.60;99.90;;;9.76;100.00;100193.81;4152657;28;20389;-75
2023/03/17 07:56:47;;;;;;;14.52;7.40;;;10.60;99.90;;;9.81;100.00;100184.44;4151277;28;20077;-75
2023/03/17 07:58:48;;;;;;;13.05;6.30;;;10.60;99.90;;;9.82;100.00;100172.09;4167821;28;20028;-74
2023/03/17 08:00:49;;;;;;;16.73;6.72;;;10.60;99.90;;;9.87;100.00;100169.78;4152831;28;20397;-74
2023/03/17 08:02:50;;;;;;;11.68;6.65;;;10.60;99.90;;;9.95;100.00;100146.88;4151409;28;20123;-74
2023/03/17 08:04:52;;;;;;;13.93;6.40;;;10.70;99.90;;;9.98;100.00;100119.38;4150961;28;20029;-74
2023/03/17 08:06:53;;;;;;;18.55;7.10;;;10.80;99.90;;;10.05;100.00;100111.63;4141313;28;20104;-74
2023/03/17 08:08:54;;;;;;;15.95;6.82;;;10.80;99.90;;;10.10;100.00;100115.38;4151278;28;20536;-74
2023/03/17 08:11:03;;;;;;;13.73;6.03;;;10.90;99.90;;;10.16;100.00;100117.38;4151319;28;20014;-74
2023/03/17 08:13:04;;;;;;;13.90;5.78;;;11.00;99.90;;;10.24;100.00;100111.28;4150589;28;20026;-74
2023/03/17 08:15:06;;;;;;;12.55;6.57;;;11.00;99.90;;;10.31;100.00;100112.22;4141788;28;20528;-74
2023/03/17 08:17:07;;;;;;;15.10;5.70;;;11.10;99.90;;;10.44;100.00;100107.25;4145611;28;20022;-74
2023/03/17 08:19:09;;;;;;;14.40;5.88;;;11.20;99.90;;;10.56;100.00;100116.44;4131232;28;20029;-74
2023/03/17 08:21:10;;;;;;;14.38;7.05;;;11.40;99.90;;;10.76;100.00;100132.66;4150765;28;20033;-74
2023/03/17 08:23:11;;;;;;;13.32;5.85;;;11.50;99.90;;;10.88;100.00;100142.66;4141252;28;20033;-74